Time,TemperatureF,DewpointF,PressureIn,WindDirection,WindDirectionDegrees,WindSpeedMPH,WindSpeedGustMPH,Humidity,HourlyPrecipIn,Conditions,Clouds,dailyrainin,SolarRadiationWatts/m^2,SoftwareType,DateUTC
2013-05-27 00:21:00,39.0,27.0,-100.00,SE,143,3.0,5.0,60,-99.99,,,-99.99,0.000000,,2013-05-27 07:21:00,
2013-05-27 00:30:00,39.0,25.0,-100.00,SE,142,3.0,5.0,56,-99.99,,,-99.99,0.000000,,2013-05-27 07:30:00,
2013-05-27 01:21:00,39.0,25.0,-100.00,SE,142,3.0,5.0,56,-99.99,,,-99.99,0.000000,,2013-05-27 08:21:00,
2013-05-27 01:30:00,39.0,23.0,-100.00,SE,139,2.0,3.0,53,-99.99,,,-99.99,0.000000,,2013-05-27 08:30:00,
2013-05-27 02:21:00,39.0,23.0,-100.00,SE,139,2.0,3.0,53,-99.99,,,-99.99,0.000000,,2013-05-27 09:21:00,
2013-05-27 02:30:00,39.0,21.0,-100.00,SE,141,4.0,7.0,48,-99.99,,,-99.99,0.000000,,2013-05-27 09:30:00,
2013-05-27 03:22:00,39.0,21.0,-100.00,SE,141,4.0,7.0,48,-99.99,,,-99.99,0.000000,,2013-05-27 10:22:00,
2013-05-27 03:30:00,39.0,20.0,-100.00,SE,135,4.0,8.0,46,-99.99,,,-99.99,0.000000,,2013-05-27 10:30:00,
2013-05-27 04:22:00,39.0,20.0,-100.00,SE,135,4.0,8.0,46,-99.99,,,-99.99,0.000000,,2013-05-27 11:22:00,
2013-05-27 04:30:00,39.0,19.0,-100.00,SSE,148,4.0,6.0,43,-99.99,,,-99.99,0.000000,,2013-05-27 11:30:00,
2013-05-27 05:21:00,39.0,19.0,-100.00,SSE,148,4.0,6.0,43,-99.99,,,-99.99,0.000000,,2013-05-27 12:21:00,
2013-05-27 05:30:00,39.0,18.0,-100.00,SE,134,5.0,8.0,42,-99.99,,,-99.99,1.000000,,2013-05-27 12:30:00,
2013-05-27 06:21:00,39.0,18.0,-100.00,SE,134,5.0,8.0,42,-99.99,,,-99.99,1.000000,,2013-05-27 13:21:00,
2013-05-27 06:30:00,39.0,21.0,-100.00,SE,126,6.0,10.0,47,-99.99,,,-99.99,36.000000,,2013-05-27 13:30:00,
2013-05-27 07:30:00,41.0,19.0,-100.00,SE,131,8.0,13.0,41,-99.99,,,-99.99,93.000000,,2013-05-27 14:30:00,
2013-05-27 08:21:00,41.0,19.0,-100.00,SE,131,8.0,13.0,41,-99.99,,,-99.99,93.000000,,2013-05-27 15:21:00,
2013-05-27 08:30:00,43.0,19.0,-100.00,SSE,153,4.0,7.0,37,-99.99,,,-99.99,230.000000,,2013-05-27 15:30:00,
2013-05-27 09:23:00,43.0,19.0,-100.00,SSE,153,4.0,7.0,37,-99.99,,,-99.99,230.000000,,2013-05-27 16:23:00,
2013-05-27 09:30:00,45.0,28.0,-100.00,SSW,194,4.0,8.0,50,-99.99,,,-99.99,520.000000,,2013-05-27 16:30:00,
2013-05-27 10:22:00,45.0,28.0,-100.00,SSW,194,4.0,8.0,50,-99.99,,,-99.99,520.000000,,2013-05-27 17:22:00,
2013-05-27 10:30:00,46.0,27.0,-100.00,South,186,3.0,6.0,48,-99.99,,,-99.99,381.000000,,2013-05-27 17:30:00,
2013-05-27 11:30:00,44.0,29.0,-100.00,SSW,213,3.0,8.0,54,-99.99,,,-99.99,290.000000,,2013-05-27 18:30:00,
2013-05-27 12:21:00,44.0,29.0,-100.00,SSW,213,3.0,8.0,54,-99.99,,,-99.99,290.000000,,2013-05-27 19:21:00,
2013-05-27 12:30:00,39.0,33.0,-100.00,SW,215,3.0,8.0,80,-99.99,,,-99.99,143.000000,,2013-05-27 19:30:00,
2013-05-27 13:22:00,39.0,33.0,-100.00,SW,215,3.0,8.0,80,-99.99,,,-99.99,143.000000,,2013-05-27 20:22:00,
2013-05-27 13:30:00,36.0,34.0,-100.00,SSW,197,3.0,6.0,93,-99.99,,,-99.99,56.000000,,2013-05-27 20:30:00,
2013-05-27 14:21:00,36.0,34.0,-100.00,SSW,197,3.0,6.0,93,-99.99,,,-99.99,56.000000,,2013-05-27 21:21:00,
2013-05-27 14:30:00,35.0,34.0,-100.00,SE,146,3.0,8.0,95,-99.99,,,-99.99,82.000000,,2013-05-27 21:30:00,
2013-05-27 15:22:00,35.0,34.0,-100.00,SE,146,3.0,8.0,95,-99.99,,,-99.99,82.000000,,2013-05-27 22:22:00,
2013-05-27 15:30:00,36.0,35.0,-100.00,SE,128,6.0,9.0,96,-99.99,,,-99.99,131.000000,,2013-05-27 22:30:00,
2013-05-27 16:30:00,38.0,37.0,-100.00,SE,141,4.0,7.0,96,-99.99,,,-99.99,55.000000,,2013-05-27 23:30:00,
2013-05-27 17:30:00,38.0,37.0,-100.00,SSE,149,3.0,7.0,96,-99.99,,,-99.99,44.000000,,2013-05-28 00:30:00,
2013-05-27 18:30:00,39.0,38.0,-100.00,SSW,213,3.0,6.0,96,-99.99,,,-99.99,21.000000,,2013-05-28 01:30:00,
2013-05-27 19:21:00,39.0,38.0,-100.00,SSW,213,3.0,6.0,96,-99.99,,,-99.99,21.000000,,2013-05-28 02:21:00,
2013-05-27 19:30:00,39.0,38.0,-100.00,SW,223,3.0,7.0,96,-99.99,,,-99.99,8.000000,,2013-05-28 02:30:00,
2013-05-27 20:30:00,39.0,38.0,-100.00,SSW,200,3.0,6.0,96,-99.99,,,-99.99,0.000000,,2013-05-28 03:30:00,
2013-05-27 21:22:00,39.0,38.0,-100.00,SSW,200,3.0,6.0,96,-99.99,,,-99.99,0.000000,,2013-05-28 04:22:00,
2013-05-27 21:30:00,39.0,38.0,-100.00,South,184,3.0,10.0,96,-99.99,,,-99.99,0.000000,,2013-05-28 04:30:00,
2013-05-27 22:22:00,39.0,38.0,-100.00,South,184,3.0,10.0,96,-99.99,,,-99.99,0.000000,,2013-05-28 05:22:00,
2013-05-27 22:30:00,39.0,38.0,-100.00,South,190,2.0,7.0,96,-99.99,,,-99.99,0.000000,,2013-05-28 05:30:00,
2013-05-27 23:21:00,39.0,38.0,-100.00,South,190,2.0,7.0,96,-99.99,,,-99.99,0.000000,,2013-05-28 06:21:00,
2013-05-27 23:30:00,39.0,38.0,-100.00,South,186,4.0,10.0,96,-99.99,,,-99.99,0.000000,,2013-05-28 06:30:00,